Time;durP1;ratioP1;P1;durP2;ratioP2;P2;SDS_P1;SDS_P2;PMS_P1;PMS_P2;Temp;Humidity;BMP_temperature;BMP_pressure;BME280_temperature;BME280_humidity;BME280_pressure;Samples;Min_cycle;Max_cycle;Signal;HPM_P1;HPM_P2
2022/11/24 00:01:10;;;;;;;18.83;6.07;;;7.80;99.90;;;;;;5077509;28;20044;-84
2022/11/24 00:03:36;;;;;;;19.75;5.57;;;7.10;99.90;;;;;;5076092;28;20119;-83
2022/11/24 00:06:13;;;;;;;20.38;5.97;;;7.10;99.90;;;;;;5093624;28;20047;-84
2022/11/24 00:08:40;;;;;;;20.75;5.88;;;7.10;99.90;;;;;;5076198;28;20523;-83
2022/11/24 00:11:08;;;;;;;19.35;5.60;;;7.20;99.90;;;;;;5060078;28;20143;-83
2022/11/24 00:13:34;;;;;;;26.27;5.85;;;7.40;99.90;;;;;;5068108;28;20078;-83
2022/11/24 00:16:15;;;;;;;19.23;5.78;;;7.10;99.90;;;;;;5076174;28;20500;-84
2022/11/24 00:18:43;;;;;;;21.85;6.38;;;7.20;99.90;;;;;;5092491;28;20427;-84
2022/11/24 00:21:09;;;;;;;22.80;4.80;;;7.10;99.90;;;;;;5052137;28;20500;-83
2022/11/24 00:23:36;;;;;;;20.15;5.65;;;7.20;99.90;;;;;;5076408;28;20051;-83
2022/11/24 00:26:07;;;;;;;17.42;4.82;;;7.20;99.90;;;;;;5075773;28;20103;-83
2022/11/24 00:28:34;;;;;;;21.33;5.30;;;7.30;99.90;;;;;;5092927;28;20043;-83
2022/11/24 00:31:00;;;;;;;18.50;5.28;;;7.30;99.90;;;;;;5060498;28;20043;-83
2022/11/24 00:33:26;;;;;;;24.33;5.53;;;7.30;99.90;;;;;;5075538;28;20507;-83
2022/11/24 00:35:56;;;;;;;18.15;4.82;;;7.30;99.90;;;;;;5043344;28;20036;-84
2022/11/24 00:38:22;;;;;;;23.70;5.63;;;7.90;99.90;;;;;;5060515;28;20146;-83
2022/11/24 00:40:48;;;;;;;25.63;5.65;;;7.30;99.90;;;;;;5075672;28;20044;-85
2022/11/24 00:43:13;;;;;;;26.85;5.03;;;7.50;99.90;;;;;;5059258;28;20044;-82
2022/11/24 00:45:40;;;;;;;20.80;4.68;;;8.20;99.90;;;;;;5059390;28;20874;-83
2022/11/24 00:48:06;;;;;;;27.42;5.43;;;7.40;99.90;;;;;;5092471;28;20040;-82
2022/11/24 00:50:31;;;;;;;19.65;5.30;;;7.40;99.90;;;;;;5059425;28;20048;-83
2022/11/24 00:52:57;;;;;;;26.17;5.30;;;7.40;99.90;;;;;;5059402;28;20055;-83
2022/11/24 00:55:23;;;;;;;20.40;5.20;;;7.30;99.90;;;;;;5059354;28;20404;-83
2022/11/24 00:57:48;;;;;;;22.10;4.78;;;7.30;99.90;;;;;;5058649;28;20511;-83
2022/11/24 01:00:15;;;;;;;22.63;4.45;;;7.30;99.90;;;;;;5075759;28;20044;-83
2022/11/24 01:02:41;;;;;;;22.55;5.50;;;7.30;99.90;;;;;;5075396;28;20131;-83
2022/11/24 01:05:07;;;;;;;18.52;4.53;;;7.40;99.90;;;;;;5075880;28;20127;-83
2022/11/24 01:07:32;;;;;;;27.13;5.68;;;7.40;99.90;;;;;;5059219;28;20040;-83
2022/11/24 01:09:58;;;;;;;21.67;4.28;;;7.40;99.90;;;;;;5048641;28;20047;-83
2022/11/24 01:12:24;;;;;;;18.40;3.78;;;7.40;99.90;;;;;;5040761;28;20036;-83
2022/11/24 01:14:50;;;;;;;26.45;5.72;;;7.40;99.90;;;;;;5058619;28;20038;-83
2022/11/24 01:17:15;;;;;;;23.48;5.60;;;7.70;99.90;;;;;;5042300;28;20547;-83
2022/11/24 01:19:41;;;;;;;16.63;4.18;;;8.30;99.90;;;;;;5074861;28;20048;-83
2022/11/24 01:22:07;;;;;;;22.48;4.18;;;7.60;99.90;;;;;;5058335;28;20032;-83
2022/11/24 01:24:32;;;;;;;18.92;4.65;;;7.50;99.90;;;;;;5075548;28;20068;-82
2022/11/24 01:26:58;;;;;;;25.48;4.90;;;7.50;99.90;;;;;;5042898;28;20118;-82
2022/11/24 01:29:24;;;;;;;18.55;3.78;;;7.50;99.90;;;;;;5058749;28;20036;-83
2022/11/24 01:31:50;;;;;;;19.90;4.45;;;7.50;99.90;;;;;;5075103;28;20040;-83
2022/11/24 01:34:16;;;;;;;24.88;4.97;;;7.50;99.90;;;;;;5057855;28;20120;-83
2022/11/24 01:36:42;;;;;;;28.05;6.45;;;7.50;99.90;;;;;;5075383;28;20044;-83
2022/11/24 01:39:08;;;;;;;20.95;4.93;;;7.50;99.90;;;;;;5057647;28;20606;-82
2022/11/24 01:41:34;;;;;;;22.52;4.63;;;7.50;99.90;;;;;;5058319;28;20079;-83
2022/11/24 01:44:00;;;;;;;24.63;4.40;;;7.50;99.90;;;;;;5074570;28;20128;-82
2022/11/24 01:46:41;;;;;;;19.83;4.82;;;7.50;99.90;;;;;;5075071;28;20515;-83
2022/11/24 01:49:26;;;;;;;20.02;4.85;;;7.50;99.90;;;;;;5090947;28;20480;-83
2022/11/24 01:52:14;;;;;;;21.33;4.70;;;7.50;99.90;;;;;;5074593;28;20036;-83
2022/11/24 01:54:56;;;;;;;20.25;4.50;;;7.50;99.90;;;;;;5090270;28;20063;-83
2022/11/24 01:57:30;;;;;;;19.55;4.57;;;7.60;99.90;;;;;;5073292;28;20044;-83
2022/11/24 02:00:06;;;;;;;20.02;3.90;;;8.10;99.90;;;;;;5074196;28;20128;-83
2022/11/24 02:02:32;;;;;;;17.02;4.10;;;7.60;99.90;;;;;;5073295;28;20047;-83
2022/11/24 02:05:06;;;;;;;21.40;4.53;;;7.60;99.90;;;;;;5074014;28;20123;-83
2022/11/24 02:07:33;;;;;;;20.60;4.20;;;7.60;99.90;;;;;;5073899;28;20484;-83
2022/11/24 02:10:03;;;;;;;20.30;3.83;;;7.60;99.90;;;;;;5074863;28;20044;-83
2022/11/24 02:12:28;;;;;;;17.95;4.60;;;7.60;99.90;;;;;;5089755;28;20040;-83
2022/11/24 02:14:55;;;;;;;22.38;4.50;;;7.60;99.90;;;;;;5057353;28;20498;-83
2022/11/24 02:17:21;;;;;;;22.52;4.30;;;7.60;99.90;;;;;;5056799;28;20054;-83
2022/11/24 02:20:00;;;;;;;16.35;4.13;;;7.60;99.90;;;;;;5073876;28;20100;-83
2022/11/24 02:22:53;;;;;;;21.23;4.13;;;7.60;99.90;;;;;;5074029;28;20111;-83
2022/11/24 02:25:27;;;;;;;27.52;4.70;;;7.70;99.90;;;;;;5091020;28;20044;-83
2022/11/24 02:27:54;;;;;;;14.23;4.15;;;7.70;99.90;;;;;;5090587;28;20510;-83
2022/11/24 02:30:20;;;;;;;18.25;4.70;;;7.70;99.90;;;;;;5055431;28;20048;-83
2022/11/24 02:32:46;;;;;;;23.98;4.13;;;7.70;99.90;;;;;;5041071;28;20044;-83
2022/11/24 02:35:12;;;;;;;22.55;4.50;;;7.70;99.90;;;;;;5057175;28;20036;-83
2022/11/24 02:37:38;;;;;;;16.67;4.45;;;7.80;99.90;;;;;;5074034;28;20127;-83
2022/11/24 02:40:04;;;;;;;23.77;4.38;;;7.70;99.90;;;;;;5066622;28;20071;-83
2022/11/24 02:42:35;;;;;;;20.38;3.97;;;7.70;99.90;;;;;;5056858;28;21052;-82
2022/11/24 02:45:01;;;;;;;16.38;4.93;;;7.70;99.90;;;;;;5089955;28;20040;-83
2022/11/24 02:47:27;;;;;;;17.60;3.90;;;7.70;99.90;;;;;;5057292;28;20135;-83
2022/11/24 02:49:53;;;;;;;19.23;4.20;;;7.70;99.90;;;;;;5073115;28;20036;-83
2022/11/24 02:52:19;;;;;;;18.50;4.65;;;7.70;99.90;;;;;;5075277;28;20653;-83
2022/11/24 02:54:44;;;;;;;20.85;4.05;;;7.80;99.90;;;;;;5057308;28;20063;-83
2022/11/24 02:57:10;;;;;;;21.58;4.00;;;8.70;99.90;;;;;;5057929;28;20036;-83
2022/11/24 02:59:36;;;;;;;19.08;3.97;;;7.80;99.90;;;;;;5057495;28;20032;-83
2022/11/24 03:02:03;;;;;;;20.85;3.60;;;7.80;99.90;;;;;;5049251;28;20039;-83
2022/11/24 03:04:29;;;;;;;20.20;3.78;;;7.80;99.90;;;;;;5074655;28;20515;-83
2022/11/24 03:06:54;;;;;;;18.25;3.47;;;7.80;99.90;;;;;;5090477;28;20044;-83
2022/11/24 03:09:20;;;;;;;21.10;3.65;;;7.90;99.90;;;;;;5069314;28;20109;-84
2022/11/24 03:11:45;;;;;;;19.73;3.70;;;8.00;99.90;;;;;;5069945;28;20123;-83
2022/11/24 03:14:11;;;;;;;17.15;3.55;;;8.00;99.90;;;;;;5060151;28;20043;-84
2022/11/24 03:16:37;;;;;;;18.52;4.05;;;8.70;99.90;;;;;;5044213;28;20028;-84
2022/11/24 03:19:03;;;;;;;20.15;3.47;;;8.00;99.90;;;;;;5075434;28;20036;-83
2022/11/24 03:21:29;;;;;;;17.67;3.50;;;9.00;99.90;;;;;;5061139;28;20067;-83
2022/11/24 03:23:54;;;;;;;14.55;3.03;;;8.00;99.90;;;;;;5094683;28;20048;-83
2022/11/24 03:26:22;;;;;;;20.58;3.78;;;8.70;99.90;;;;;;5073464;28;20036;-84
2022/11/24 03:28:47;;;;;;;11.35;2.90;;;8.00;99.90;;;;;;5060865;28;20048;-84
2022/11/24 03:31:13;;;;;;;15.95;3.05;;;7.90;99.90;;;;;;5060969;28;20373;-83
2022/11/24 03:33:39;;;;;;;15.73;3.17;;;7.90;99.90;;;;;;5078469;28;20051;-83
2022/11/24 03:36:06;;;;;;;17.40;2.75;;;8.10;99.90;;;;;;5043259;28;20039;-84
2022/11/24 03:38:32;;;;;;;14.48;3.33;;;7.90;99.90;;;;;;5060455;28;20076;-84
2022/11/24 03:40:58;;;;;;;17.13;3.33;;;7.90;99.90;;;;;;5093328;28;20126;-83
2022/11/24 03:43:24;;;;;;;20.38;3.55;;;7.90;99.90;;;;;;5093581;28;20488;-83
2022/11/24 03:45:50;;;;;;;21.98;3.58;;;7.80;99.90;;;;;;5060458;28;20102;-84
2022/11/24 03:48:19;;;;;;;19.73;3.72;;;7.90;99.90;;;;;;5077564;28;20048;-83
2022/11/24 03:50:55;;;;;;;17.25;3.20;;;7.80;99.90;;;;;;5079193;28;20047;-83
2022/11/24 03:53:22;;;;;;;14.27;2.78;;;7.90;99.90;;;;;;5062642;28;20075;-83
2022/11/24 03:55:47;;;;;;;19.05;3.63;;;7.80;99.90;;;;;;5077216;28;20151;-84
2022/11/24 03:58:13;;;;;;;17.52;3.22;;;7.80;99.90;;;;;;5071498;28;20079;-84
2022/11/24 04:00:39;;;;;;;15.85;3.20;;;7.80;99.90;;;;;;5084151;28;20465;-83
2022/11/24 04:03:05;;;;;;;16.90;3.22;;;7.70;99.90;;;;;;5087868;28;20040;-84
2022/11/24 04:05:32;;;;;;;18.00;3.30;;;7.90;99.90;;;;;;5080158;28;20040;-84
2022/11/24 04:08:01;;;;;;;16.80;3.40;;;7.70;99.90;;;;;;5077864;28;20044;-83
2022/11/24 04:10:27;;;;;;;16.15;3.25;;;7.70;99.90;;;;;;5062957;28;20115;-83
2022/11/24 04:12:53;;;;;;;21.77;4.18;;;7.60;99.90;;;;;;5044267;28;20676;-83
2022/11/24 04:15:20;;;;;;;16.95;2.95;;;7.60;99.90;;;;;;5058572;28;20047;-84
2022/11/24 04:17:48;;;;;;;18.38;3.50;;;7.60;99.90;;;;;;5059608;28;20039;-83
2022/11/24 04:20:14;;;;;;;17.95;4.10;;;7.70;99.90;;;;;;5076242;28;20043;-83
2022/11/24 04:22:40;;;;;;;15.32;3.72;;;7.60;99.90;;;;;;5075166;28;20050;-83
2022/11/24 04:25:07;;;;;;;22.08;3.17;;;7.80;99.90;;;;;;5076501;28;20047;-83
2022/11/24 04:27:34;;;;;;;15.35;3.22;;;7.70;99.90;;;;;;5076914;28;20048;-83
2022/11/24 04:29:59;;;;;;;14.35;2.90;;;8.40;99.90;;;;;;5060063;28;20044;-83
2022/11/24 04:32:25;;;;;;;19.45;3.17;;;7.70;99.90;;;;;;5094076;28;20036;-83
2022/11/24 04:34:51;;;;;;;14.00;3.03;;;7.60;99.90;;;;;;5043885;28;20485;-83
2022/11/24 04:37:16;;;;;;;15.23;3.42;;;7.70;99.90;;;;;;5093174;28;20495;-84
2022/11/24 04:39:43;;;;;;;14.88;3.10;;;7.60;99.90;;;;;;5075868;28;20494;-84
2022/11/24 04:42:09;;;;;;;19.30;3.50;;;7.70;99.90;;;;;;5053398;28;20041;-83
2022/11/24 04:44:35;;;;;;;19.77;3.00;;;8.20;99.90;;;;;;5042422;28;20542;-84
2022/11/24 04:47:00;;;;;;;19.33;3.80;;;7.90;99.90;;;;;;5059451;28;20107;-83
2022/11/24 04:49:26;;;;;;;14.57;3.33;;;7.60;99.90;;;;;;5042748;28;20040;-83
2022/11/24 04:51:52;;;;;;;14.10;3.67;;;7.60;99.90;;;;;;5074330;28;20130;-83
2022/11/24 04:54:17;;;;;;;14.90;3.35;;;7.60;99.90;;;;;;5075310;28;20048;-83
2022/11/24 04:56:43;;;;;;;15.35;3.25;;;7.60;99.90;;;;;;5058813;28;20079;-83
2022/11/24 04:59:13;;;;;;;15.25;3.35;;;7.50;99.90;;;;;;5075388;28;20046;-83
2022/11/24 05:01:44;;;;;;;12.38;3.10;;;7.50;99.90;;;;;;5092145;28;20081;-83
2022/11/24 05:04:11;;;;;;;15.52;3.53;;;7.50;99.90;;;;;;5092472;28;20119;-83
2022/11/24 05:06:38;;;;;;;15.00;3.10;;;7.50;99.90;;;;;;5092131;28;20044;-83
2022/11/24 05:09:05;;;;;;;17.05;3.60;;;7.40;99.90;;;;;;5058888;28;20036;-83
2022/11/24 05:11:30;;;;;;;15.25;3.13;;;7.90;99.90;;;;;;5075348;28;20060;-84
2022/11/24 05:13:56;;;;;;;13.43;2.97;;;7.40;99.90;;;;;;5074999;28;20044;-84
2022/11/24 05:16:22;;;;;;;14.73;3.30;;;7.40;99.90;;;;;;5075403;28;20055;-83
2022/11/24 05:18:47;;;;;;;18.63;3.47;;;7.40;99.90;;;;;;5092072;28;20071;-83
2022/11/24 05:21:13;;;;;;;14.70;3.45;;;7.40;99.90;;;;;;5058295;28;20124;-84
2022/11/24 05:23:39;;;;;;;23.75;4.22;;;7.30;99.90;;;;;;5092487;28;20044;-84
2022/11/24 05:26:05;;;;;;;12.60;3.33;;;7.30;99.90;;;;;;5042742;28;20036;-83
2022/11/24 05:28:31;;;;;;;15.90;2.97;;;7.30;99.90;;;;;;5058806;28;20103;-84
2022/11/24 05:31:01;;;;;;;22.10;3.47;;;7.50;99.90;;;;;;5058287;28;20506;-83
2022/11/24 05:33:28;;;;;;;13.00;2.67;;;7.20;99.90;;;;;;5073578;28;20051;-84
2022/11/24 05:35:59;;;;;;;16.70;3.13;;;7.20;99.90;;;;;;5074958;28;20046;-84
2022/11/24 05:38:25;;;;;;;13.30;2.75;;;7.20;99.90;;;;;;5074843;28;20044;-84
2022/11/24 05:40:51;;;;;;;11.63;3.20;;;7.10;99.90;;;;;;5042191;28;20043;-83
2022/11/24 05:43:16;;;;;;;16.92;3.35;;;7.90;99.90;;;;;;5058673;28;20047;-87
2022/11/24 05:45:43;;;;;;;18.27;3.45;;;7.10;99.90;;;;;;5058653;28;20052;-86
2022/11/24 05:48:12;;;;;;;13.27;3.72;;;7.10;99.90;;;;;;5075632;28;20475;-87
2022/11/24 05:50:38;;;;;;;17.15;3.33;;;7.10;99.90;;;;;;5073838;28;20044;-87
2022/11/24 05:53:05;;;;;;;17.50;3.40;;;7.10;99.90;;;;;;5058639;28;20048;-87
2022/11/24 05:55:32;;;;;;;15.95;3.63;;;7.00;99.90;;;;;;5092977;28;20040;-87
2022/11/24 05:58:06;;;;;;;16.67;3.15;;;7.10;99.90;;;;;;5075966;28;20089;-86
2022/11/24 06:00:34;;;;;;;19.55;3.20;;;7.10;99.90;;;;;;5092333;28;20476;-87
2022/11/24 06:03:00;;;;;;;17.98;3.15;;;7.10;99.90;;;;;;5074932;28;20048;-87
2022/11/24 06:05:27;;;;;;;20.60;3.47;;;7.00;99.90;;;;;;5076128;28;20036;-87
2022/11/24 06:07:54;;;;;;;10.60;3.22;;;7.00;99.90;;;;;;5073535;28;20044;-85
2022/11/24 06:10:22;;;;;;;16.55;3.67;;;7.10;99.90;;;;;;5089802;28;20044;-85
2022/11/24 06:12:49;;;;;;;16.90;3.28;;;7.10;99.90;;;;;;5074150;28;20404;-84
2022/11/24 06:15:16;;;;;;;13.63;3.22;;;7.40;99.90;;;;;;5072350;28;20075;-85
2022/11/24 06:17:42;;;;;;;22.30;3.80;;;7.10;99.90;;;;;;5058056;28;20078;-85
2022/11/24 06:20:09;;;;;;;20.42;4.20;;;7.10;99.90;;;;;;5091450;28;20970;-85
2022/11/24 06:22:35;;;;;;;12.80;3.15;;;7.10;99.90;;;;;;5072921;28;20036;-85
2022/11/24 06:25:01;;;;;;;19.10;3.83;;;7.10;99.90;;;;;;5072362;28;20166;-85
2022/11/24 06:27:27;;;;;;;18.67;4.03;;;7.10;99.90;;;;;;5065587;28;20138;-83
2022/11/24 06:29:52;;;;;;;12.52;3.25;;;7.10;99.90;;;;;;5057392;28;20098;-83
2022/11/24 06:32:18;;;;;;;14.88;3.22;;;7.20;99.90;;;;;;5071878;28;20035;-83
2022/11/24 06:34:44;;;;;;;23.33;3.80;;;7.50;99.90;;;;;;5073341;28;20070;-84
2022/11/24 06:37:10;;;;;;;12.82;3.30;;;7.20;99.90;;;;;;5074004;28;20050;-83
2022/11/24 06:39:36;;;;;;;14.80;4.28;;;7.20;99.90;;;;;;5074184;28;20419;-83
2022/11/24 06:42:02;;;;;;;12.63;3.60;;;7.30;99.90;;;;;;5057533;28;20559;-83
2022/11/24 06:44:27;;;;;;;20.33;3.90;;;7.30;99.90;;;;;;5065947;28;20050;-83
2022/11/24 06:46:53;;;;;;;22.00;4.05;;;7.30;99.90;;;;;;5074296;28;20040;-85
2022/11/24 06:49:19;;;;;;;15.82;4.47;;;7.40;99.90;;;;;;5073970;28;20051;-85
2022/11/24 06:51:45;;;;;;;18.58;4.25;;;7.40;99.90;;;;;;5070007;28;20040;-85
2022/11/24 06:54:14;;;;;;;19.00;4.70;;;7.50;99.90;;;;;;5040521;28;20052;-84
2022/11/24 06:56:40;;;;;;;17.33;4.07;;;7.40;99.90;;;;;;5064440;28;20484;-85
2022/11/24 06:59:06;;;;;;;15.27;4.30;;;7.50;99.90;;;;;;5074904;28;20055;-84
2022/11/24 07:01:31;;;;;;;16.35;5.18;;;7.50;99.90;;;;;;5091044;28;20137;-85
2022/11/24 07:03:57;;;;;;;16.08;4.45;;;7.60;99.90;;;;;;5090050;28;20028;-85
2022/11/24 07:06:24;;;;;;;15.38;4.22;;;7.60;99.90;;;;;;5090196;28;20035;-85
2022/11/24 07:08:51;;;;;;;19.05;4.68;;;7.60;99.90;;;;;;5072857;28;20388;-85
2022/11/24 07:11:22;;;;;;;20.35;5.45;;;7.80;99.90;;;;;;5090623;28;20047;-83
2022/11/24 07:13:50;;;;;;;19.48;4.68;;;7.60;99.90;;;;;;5091303;28;20036;-85
2022/11/24 07:16:23;;;;;;;18.50;5.60;;;7.60;99.90;;;;;;5077831;28;20529;-85
2022/11/24 07:18:51;;;;;;;17.67;5.50;;;7.70;99.90;;;;;;5071135;28;20040;-86
2022/11/24 07:21:18;;;;;;;16.00;5.15;;;7.70;99.90;;;;;;5076231;28;20500;-87
2022/11/24 07:23:48;;;;;;;17.00;5.63;;;7.70;99.90;;;;;;5077134;28;20040;-87
2022/11/24 07:26:14;;;;;;;17.73;5.05;;;7.80;99.90;;;;;;5075661;28;20068;-88
2022/11/24 07:28:39;;;;;;;22.45;5.22;;;8.60;99.90;;;;;;5058185;28;20040;-89
2022/11/24 07:31:13;;;;;;;13.98;5.00;;;7.70;99.90;;;;;;5074893;28;20059;-87
2022/11/24 07:33:39;;;;;;;18.60;5.18;;;7.70;99.90;;;;;;5091219;28;20051;-86
2022/11/24 07:36:06;;;;;;;12.50;4.72;;;7.80;99.90;;;;;;5090470;28;20040;-86
2022/11/24 07:38:33;;;;;;;14.05;4.53;;;7.80;99.90;;;;;;5056482;28;20044;-85
2022/11/24 07:41:00;;;;;;;16.02;5.40;;;7.70;99.90;;;;;;5090750;28;20380;-85
2022/11/24 07:43:26;;;;;;;14.45;4.32;;;7.80;99.90;;;;;;5056734;28;20105;-85
2022/11/24 07:45:52;;;;;;;14.82;5.28;;;7.70;99.90;;;;;;5072597;28;20048;-84
2022/11/24 07:48:17;;;;;;;11.93;4.13;;;7.80;99.90;;;;;;5055773;28;20104;-83
2022/11/24 07:50:43;;;;;;;14.20;4.70;;;8.20;99.90;;;;;;5057266;28;20123;-85
2022/11/24 07:53:09;;;;;;;9.75;4.35;;;7.80;99.90;;;;;;5075685;28;20056;-86
2022/11/24 07:55:34;;;;;;;19.10;5.15;;;7.70;99.90;;;;;;5059485;28;20048;-84
2022/11/24 07:58:00;;;;;;;13.18;4.30;;;7.70;99.90;;;;;;5062433;28;20044;-84
2022/11/24 08:00:27;;;;;;;13.60;5.20;;;7.70;99.90;;;;;;5101560;28;20033;-82
2022/11/24 08:02:53;;;;;;;13.88;4.47;;;7.80;99.90;;;;;;5077365;28;20189;-83
2022/11/24 08:05:19;;;;;;;16.88;5.25;;;8.50;99.90;;;;;;5090534;28;20052;-83
2022/11/24 08:07:45;;;;;;;9.60;4.53;;;7.70;99.90;;;;;;5060662;28;20044;-82
2022/11/24 08:10:10;;;;;;;15.05;4.40;;;7.60;99.90;;;;;;5059192;28;20047;-82
2022/11/24 08:12:36;;;;;;;15.80;4.30;;;7.60;99.90;;;;;;5076784;28;20069;-82
2022/11/24 08:15:02;;;;;;;12.65;4.13;;;7.50;99.90;;;;;;5058909;28;20126;-82
2022/11/24 08:17:28;;;;;;;8.07;3.30;;;7.50;99.90;;;;;;5093528;28;20040;-82
2022/11/24 08:19:54;;;;;;;12.60;3.60;;;7.50;99.90;;;;;;5076292;28;20396;-82
2022/11/24 08:22:19;;;;;;;11.00;2.90;;;7.50;99.90;;;;;;5093489;28;20119;-82
2022/11/24 08:24:47;;;;;;;7.20;2.55;;;7.50;99.90;;;;;;5071232;28;20263;-83
2022/11/24 08:27:14;;;;;;;8.23;2.80;;;7.80;99.90;;;;;;5076846;28;20072;-83
2022/11/24 08:29:41;;;;;;;5.88;2.22;;;7.50;99.90;;;;;;5077878;28;20051;-85
2022/11/24 08:32:07;;;;;;;6.65;2.10;;;7.60;99.90;;;;;;5076775;28;20048;-83
2022/11/24 08:34:33;;;;;;;5.90;2.60;;;8.10;99.90;;;;;;5092841;28;20044;-85
2022/11/24 08:36:58;;;;;;;7.05;2.28;;;7.50;99.90;;;;;;5077018;28;20119;-87
2022/11/24 08:39:24;;;;;;;5.30;2.10;;;7.60;99.90;;;;;;5061924;28;20511;-86
2022/11/24 08:41:50;;;;;;;4.68;1.90;;;7.60;99.90;;;;;;5062892;28;20044;-86
2022/11/24 08:44:17;;;;;;;4.90;1.85;;;7.60;99.90;;;;;;5042877;28;20161;-88
2022/11/24 08:46:44;;;;;;;4.00;1.70;;;7.80;99.90;;;;;;5043690;28;20130;-89
2022/11/24 08:49:10;;;;;;;5.20;1.67;;;7.80;99.90;;;;;;5072503;28;20127;-88
2022/11/24 08:51:36;;;;;;;6.97;2.33;;;8.00;99.90;;;;;;5062856;28;20048;-87
2022/11/24 08:54:02;;;;;;;2.95;1.67;;;8.00;99.90;;;;;;5094020;28;20056;-85
2022/11/24 08:56:30;;;;;;;3.47;1.60;;;8.10;99.90;;;;;;5077749;28;20046;-87
2022/11/24 08:58:57;;;;;;;3.75;1.65;;;8.30;99.90;;;;;;5093515;28;20040;-87
2022/11/24 09:01:23;;;;;;;3.78;1.73;;;8.30;99.90;;;;;;5075718;28;20040;-87
2022/11/24 09:03:49;;;;;;;3.80;1.70;;;8.40;99.90;;;;;;5077036;28;20122;-87
2022/11/24 09:06:21;;;;;;;5.10;1.92;;;8.40;99.90;;;;;;5076956;28;20075;-86
2022/11/24 09:08:47;;;;;;;5.63;2.33;;;8.30;99.90;;;;;;5075999;28;20381;-86
2022/11/24 09:11:14;;;;;;;5.25;2.33;;;8.30;99.90;;;;;;5075695;28;20051;-86
2022/11/24 09:13:40;;;;;;;8.48;2.60;;;8.30;99.90;;;;;;5071095;28;20044;-86
2022/11/24 09:16:10;;;;;;;7.35;2.83;;;8.30;99.90;;;;;;5075624;28;20062;-86
2022/11/24 09:18:37;;;;;;;5.57;3.08;;;8.30;99.90;;;;;;5107364;28;20043;-86
2022/11/24 09:21:09;;;;;;;9.18;4.00;;;8.40;99.90;;;;;;5078321;28;20157;-86
2022/11/24 09:23:35;;;;;;;9.40;3.95;;;8.50;99.90;;;;;;5089602;28;20559;-86
2022/11/24 09:26:10;;;;;;;7.20;4.00;;;8.60;99.90;;;;;;5069662;28;20159;-87
2022/11/24 09:28:36;;;;;;;5.90;3.88;;;8.60;99.90;;;;;;5074613;28;20032;-84
2022/11/24 09:31:03;;;;;;;9.23;4.30;;;8.70;99.90;;;;;;5092149;28;20492;-83
2022/11/24 09:33:30;;;;;;;8.07;4.57;;;8.70;99.90;;;;;;5068349;28;20119;-86
2022/11/24 09:35:56;;;;;;;9.63;5.00;;;8.80;99.90;;;;;;5091383;28;20052;-84
2022/11/24 09:38:22;;;;;;;9.85;4.53;;;8.70;99.90;;;;;;5039959;28;20048;-84
2022/11/24 09:40:48;;;;;;;8.18;5.07;;;8.80;99.90;;;;;;5070602;28;20554;-84
2022/11/24 09:43:45;;;;;;;8.50;4.80;;;8.90;99.90;;;;;;5072085;28;20054;-87
2022/11/24 09:46:15;;;;;;;7.70;4.90;;;9.00;99.90;;;;;;5073910;28;20043;-87
2022/11/24 09:48:46;;;;;;;9.10;4.95;;;9.20;99.90;;;;;;5073611;28;20117;-84
2022/11/24 09:51:14;;;;;;;10.82;5.30;;;9.10;99.90;;;;;;5090117;28;20123;-84
2022/11/24 09:53:48;;;;;;;7.32;4.85;;;9.50;99.90;;;;;;5070934;28;20050;-85
2022/11/24 09:56:29;;;;;;;10.88;5.28;;;10.00;99.90;;;;;;5071868;28;20384;-85
2022/11/24 09:59:13;;;;;;;9.07;4.88;;;10.60;99.90;;;;;;5071206;28;20489;-84
2022/11/24 10:01:43;;;;;;;7.28;4.78;;;11.30;99.90;;;;;;5089871;28;20032;-85
2022/11/24 10:04:34;;;;;;;10.32;5.22;;;11.80;99.90;;;;;;5074103;28;20652;-86
2022/11/24 10:07:12;;;;;;;8.38;4.90;;;12.20;99.90;;;;;;5091974;28;20048;-85
2022/11/24 10:09:48;;;;;;;7.32;4.72;;;12.70;99.90;;;;;;5074153;28;20040;-85
2022/11/24 10:12:44;;;;;;;8.63;4.97;;;12.90;99.90;;;;;;5066519;28;20551;-85
2022/11/24 10:15:20;;;;;;;6.68;4.15;;;13.20;99.90;;;;;;5090638;28;20044;-85
2022/11/24 10:18:04;;;;;;;9.15;4.53;;;13.20;99.90;;;;;;5090020;28;20040;-85
2022/11/24 10:21:08;;;;;;;7.70;4.78;;;13.20;99.90;;;;;;5086221;28;20112;-85
2022/11/24 10:23:53;;;;;;;8.98;4.82;;;13.20;99.90;;;;;;5013492;28;20049;-86
2022/11/24 10:26:37;;;;;;;10.02;5.07;;;12.90;99.90;;;;;;5009767;28;20033;-86
2022/11/24 10:29:12;;;;;;;8.45;4.85;;;12.40;99.90;;;;;;5051837;28;20048;-86
2022/11/24 10:31:44;;;;;;;8.23;4.75;;;12.00;99.90;;;;;;5075292;28;20048;-84
2022/11/24 10:34:16;;;;;;;7.93;4.82;;;11.70;99.90;;;;;;5075269;28;20036;-85
2022/11/24 10:36:54;;;;;;;8.60;5.10;;;11.40;99.90;;;;;;5090599;28;20040;-85
2022/11/24 10:39:29;;;;;;;10.23;5.10;;;11.30;99.90;;;;;;5091662;28;20067;-84
2022/11/24 10:42:18;;;;;;;12.68;4.75;;;11.20;99.90;;;;;;5074808;28;20039;-85
2022/11/24 10:44:44;;;;;;;14.88;5.45;;;11.10;99.90;;;;;;5074433;28;20047;-85
2022/11/24 10:47:21;;;;;;;13.10;5.40;;;11.00;99.90;;;;;;5054735;28;20132;-84
2022/11/24 10:50:13;;;;;;;13.90;5.28;;;10.90;99.90;;;;;;5090371;28;20079;-85
2022/11/24 10:52:45;;;;;;;11.30;5.18;;;10.90;99.90;;;;;;5088830;28;20557;-83
2022/11/24 10:55:11;;;;;;;9.13;5.22;;;11.10;99.90;;;;;;5072300;28;20112;-85
2022/11/24 10:57:38;;;;;;;12.82;4.97;;;11.30;99.90;;;;;;5041065;28;20065;-83
2022/11/24 11:00:24;;;;;;;13.68;5.10;;;11.40;99.90;;;;;;5086370;28;20044;-82
2022/11/24 11:03:10;;;;;;;11.38;4.82;;;11.50;99.90;;;;;;5088798;28;20044;-85
2022/11/24 11:05:41;;;;;;;13.00;4.63;;;12.10;99.90;;;;;;5072508;28;20039;-85
2022/11/24 11:08:24;;;;;;;8.32;4.78;;;12.80;99.90;;;;;;5068542;28;20290;-84
2022/11/24 11:11:17;;;;;;;12.45;4.75;;;13.10;99.90;;;;;;5068099;28;20079;-83
2022/11/24 11:13:52;;;;;;;12.32;4.30;;;13.20;99.90;;;;;;5065881;28;20106;-84
2022/11/24 11:17:04;;;;;;;17.00;4.68;;;13.40;99.90;;;;;;5073253;28;20101;-82
2022/11/24 11:19:42;;;;;;;10.95;4.07;;;13.80;99.90;;;;;;5086031;28;20059;-82
2022/11/24 11:22:11;;;;;;;9.30;4.25;;;13.80;99.90;;;;;;5072959;28;20040;-82
2022/11/24 11:24:39;;;;;;;10.95;4.22;;;14.00;99.90;;;;;;5090530;28;20563;-82
2022/11/24 11:27:17;;;;;;;10.68;3.83;;;14.30;99.90;;;;;;5090717;28;20054;-81
2022/11/24 11:29:44;;;;;;;9.85;3.80;;;14.60;99.90;;;;;;5069888;28;20103;-81
2022/11/24 11:32:26;;;;;;;9.70;4.30;;;14.80;99.90;;;;;;5095265;28;20121;-81
2022/11/24 11:34:55;;;;;;;11.10;3.90;;;14.80;99.90;;;;;;5093371;28;20380;-84
2022/11/24 11:37:26;;;;;;;17.63;4.22;;;14.90;99.90;;;;;;5076157;28;20039;-83
2022/11/24 11:39:56;;;;;;;12.23;3.67;;;14.70;99.90;;;;;;5068978;28;20133;-83
2022/11/24 11:42:28;;;;;;;12.85;4.28;;;14.30;99.90;;;;;;5060744;28;20381;-82
2022/11/24 11:44:57;;;;;;;11.40;3.72;;;13.90;99.90;;;;;;5074693;28;20064;-82
2022/11/24 11:47:45;;;;;;;14.73;3.83;;;13.40;99.90;;;;;;5093814;28;20040;-83
2022/11/24 11:50:16;;;;;;;14.15;4.22;;;12.90;99.90;;;;;;5047991;28;20074;-83
2022/11/24 11:53:08;;;;;;;12.75;3.33;;;12.60;99.90;;;;;;5062198;28;20040;-82
2022/11/24 11:55:53;;;;;;;11.80;3.13;;;12.40;99.90;;;;;;5076801;28;20044;-83
2022/11/24 11:58:41;;;;;;;16.02;3.55;;;12.30;99.90;;;;;;5092359;28;20035;-82
2022/11/24 12:01:13;;;;;;;17.10;4.25;;;12.10;99.90;;;;;;5077081;28;20088;-82
2022/11/24 12:04:00;;;;;;;13.25;3.90;;;12.00;99.90;;;;;;5100656;28;20099;-82
2022/11/24 12:06:44;;;;;;;10.50;3.08;;;12.10;99.90;;;;;;5085923;28;20036;-81
2022/11/24 12:09:55;;;;;;;14.32;3.70;;;12.10;99.90;;;;;;5083166;28;20036;-81
2022/11/24 12:12:36;;;;;;;9.57;2.90;;;12.10;99.90;;;;;;5086777;28;20078;-81
2022/11/24 12:15:21;;;;;;;12.45;3.47;;;12.00;99.90;;;;;;5067380;28;20048;-82
2022/11/24 12:17:53;;;;;;;15.18;3.70;;;11.90;99.90;;;;;;5076696;28;20358;-82
2022/11/24 12:20:35;;;;;;;16.77;3.20;;;11.80;99.90;;;;;;5072297;28;20484;-82
2022/11/24 12:23:01;;;;;;;13.57;3.78;;;11.70;99.90;;;;;;5069722;28;20399;-82
2022/11/24 12:25:54;;;;;;;14.77;3.17;;;11.70;99.90;;;;;;5092584;28;20048;-81
2022/11/24 12:28:29;;;;;;;15.30;3.08;;;11.70;99.90;;;;;;5073854;28;20131;-81
2022/11/24 12:30:57;;;;;;;11.65;3.45;;;11.70;99.90;;;;;;5075190;28;20079;-82
2022/11/24 12:33:59;;;;;;;12.25;2.83;;;11.60;99.90;;;;;;5071816;28;20986;-84
2022/11/24 12:36:52;;;;;;;14.50;3.00;;;11.70;99.90;;;;;;5064734;28;20040;-81
2022/11/24 12:39:27;;;;;;;11.98;3.13;;;11.70;99.90;;;;;;5074487;28;20059;-82
2022/11/24 12:42:07;;;;;;;13.85;2.67;;;11.70;99.90;;;;;;5092415;28;20595;-82
2022/11/24 12:44:33;;;;;;;16.63;3.25;;;11.70;99.90;;;;;;5093191;28;20510;-81
2022/11/24 12:47:08;;;;;;;13.63;2.70;;;11.70;99.90;;;;;;5071411;28;20031;-82
2022/11/24 12:49:41;;;;;;;12.43;2.90;;;11.70;99.90;;;;;;5078176;28;20044;-82
2022/11/24 12:52:32;;;;;;;13.18;3.00;;;11.80;99.90;;;;;;5092272;28;20078;-82
2022/11/24 12:54:59;;;;;;;13.15;3.22;;;12.10;99.90;;;;;;5075223;28;20075;-83
2022/11/24 12:57:32;;;;;;;21.55;3.25;;;12.30;99.90;;;;;;5075809;28;20476;-83
2022/11/24 13:00:06;;;;;;;14.85;2.65;;;12.40;99.90;;;;;;5092585;28;20032;-82